sensor_id;sensor_type;location;lat;lon;timestamp;P1;durP1;ratioP1;P2;durP2;ratioP2
68224;SDS011;57497;43.322;21.932;2022-12-10T00:00:34;62.3;;;33.4;;
68224;SDS011;57497;43.322;21.932;2022-12-10T00:05:35;44.4;;;29.2;;
68224;SDS011;57497;43.322;21.932;2022-12-10T00:10:33;48.8;;;26.1;;
68224;SDS011;57497;43.322;21.932;2022-12-10T00:15:33;48.3;;;30.1;;
68224;SDS011;57497;43.322;21.932;2022-12-10T00:20:33;51;;;29.6;;
68224;SDS011;57497;43.322;21.932;2022-12-10T00:25:33;52.6;;;29.9;;
68224;SDS011;57497;43.322;21.932;2022-12-10T00:30:33;71.5;;;29;;
68224;SDS011;57497;43.322;21.932;2022-12-10T00:35:34;59.6;;;34.6;;
68224;SDS011;57497;43.322;21.932;2022-12-10T00:40:33;67.8;;;32.6;;
68224;SDS011;57497;43.322;21.932;2022-12-10T00:45:32;36.4;;;19.2;;
68224;SDS011;57497;43.322;21.932;2022-12-10T00:50:32;54;;;22.2;;
68224;SDS011;57497;43.322;21.932;2022-12-10T00:55:33;25.7;;;14;;
68224;SDS011;57497;43.322;21.932;2022-12-10T01:00:34;18.1;;;10.1;;
68224;SDS011;57497;43.322;21.932;2022-12-10T01:05:33;22.2;;;9.5;;
68224;SDS011;57497;43.322;21.932;2022-12-10T01:10:33;29.2;;;10.8;;
68224;SDS011;57497;43.322;21.932;2022-12-10T01:15:36;33.2;;;10.3;;
68224;SDS011;57497;43.322;21.932;2022-12-10T01:20:34;11.2;;;5.5;;
68224;SDS011;57497;43.322;21.932;2022-12-10T01:25:33;5;;;2.8;;
68224;SDS011;57497;43.322;21.932;2022-12-10T01:30:33;19.3;;;3.2;;
68224;SDS011;57497;43.322;21.932;2022-12-10T01:35:35;8;;;3.9;;
68224;SDS011;57497;43.322;21.932;2022-12-10T01:40:36;14.8;;;5.2;;
68224;SDS011;57497;43.322;21.932;2022-12-10T01:45:32;6.3;;;3.5;;
68224;SDS011;57497;43.322;21.932;2022-12-10T01:50:33;16.6;;;4.3;;
68224;SDS011;57497;43.322;21.932;2022-12-10T01:55:37;6.9;;;3.7;;
68224;SDS011;57497;43.322;21.932;2022-12-10T02:00:34;8.2;;;4.7;;
68224;SDS011;57497;43.322;21.932;2022-12-10T02:05:34;19.6;;;3.8;;
68224;SDS011;57497;43.322;21.932;2022-12-10T02:10:37;10.3;;;3.8;;
68224;SDS011;57497;43.322;21.932;2022-12-10T02:15:34;6.4;;;3.1;;
68224;SDS011;57497;43.322;21.932;2022-12-10T02:20:34;9.5;;;3.4;;
68224;SDS011;57497;43.322;21.932;2022-12-10T02:25:36;9.2;;;3.3;;
68224;SDS011;57497;43.322;21.932;2022-12-10T02:30:33;8.7;;;2.3;;
68224;SDS011;57497;43.322;21.932;2022-12-10T02:35:33;23.1;;;4;;
68224;SDS011;57497;43.322;21.932;2022-12-10T02:40:33;11.4;;;3.5;;
68224;SDS011;57497;43.322;21.932;2022-12-10T02:45:33;5.3;;;3.4;;
68224;SDS011;57497;43.322;21.932;2022-12-10T02:50:33;10.1;;;2.8;;
68224;SDS011;57497;43.322;21.932;2022-12-10T02:55:36;6.7;;;3.3;;
68224;SDS011;57497;43.322;21.932;2022-12-10T03:00:35;7.4;;;3.3;;
68224;SDS011;57497;43.322;21.932;2022-12-10T03:05:35;18.9;;;4.2;;
68224;SDS011;57497;43.322;21.932;2022-12-10T03:10:34;6.7;;;3.7;;
68224;SDS011;57497;43.322;21.932;2022-12-10T03:15:34;9.6;;;3.8;;
68224;SDS011;57497;43.322;21.932;2022-12-10T03:20:34;20.6;;;5.4;;
68224;SDS011;57497;43.322;21.932;2022-12-10T03:25:32;18.8;;;6.9;;
68224;SDS011;57497;43.322;21.932;2022-12-10T03:30:33;13.3;;;7.7;;
68224;SDS011;57497;43.322;21.932;2022-12-10T03:35:33;32;;;12.7;;
68224;SDS011;57497;43.322;21.932;2022-12-10T03:40:32;28.4;;;15;;
68224;SDS011;57497;43.322;21.932;2022-12-10T03:45:33;35.8;;;11;;
68224;SDS011;57497;43.322;21.932;2022-12-10T03:50:33;25.8;;;13.2;;
68224;SDS011;57497;43.322;21.932;2022-12-10T03:55:33;29;;;9.9;;
68224;SDS011;57497;43.322;21.932;2022-12-10T04:00:33;21.8;;;7.7;;
68224;SDS011;57497;43.322;21.932;2022-12-10T04:05:32;11.8;;;8.2;;
68224;SDS011;57497;43.322;21.932;2022-12-10T04:10:34;16.4;;;10.5;;
68224;SDS011;57497;43.322;21.932;2022-12-10T04:15:33;21.6;;;10.4;;
68224;SDS011;57497;43.322;21.932;2022-12-10T04:20:33;18.1;;;8.7;;
68224;SDS011;57497;43.322;21.932;2022-12-10T04:25:33;20.4;;;9.7;;
68224;SDS011;57497;43.322;21.932;2022-12-10T04:30:32;14.3;;;7.7;;
68224;SDS011;57497;43.322;21.932;2022-12-10T04:35:33;25.7;;;8.2;;
68224;SDS011;57497;43.322;21.932;2022-12-10T04:40:33;10.8;;;6.7;;
68224;SDS011;57497;43.322;21.932;2022-12-10T04:45:33;9.9;;;5.7;;
68224;SDS011;57497;43.322;21.932;2022-12-10T04:50:32;11.2;;;6.8;;
68224;SDS011;57497;43.322;21.932;2022-12-10T04:55:33;12.7;;;5.2;;
68224;SDS011;57497;43.322;21.932;2022-12-10T05:00:34;12.6;;;8;;
68224;SDS011;57497;43.322;21.932;2022-12-10T05:05:33;10.7;;;4.7;;
68224;SDS011;57497;43.322;21.932;2022-12-10T05:10:33;9.1;;;4.3;;
68224;SDS011;57497;43.322;21.932;2022-12-10T05:15:33;6.9;;;2.9;;
68224;SDS011;57497;43.322;21.932;2022-12-10T05:20:33;11.3;;;4.4;;
68224;SDS011;57497;43.322;21.932;2022-12-10T05:25:33;13.7;;;4.9;;
68224;SDS011;57497;43.322;21.932;2022-12-10T05:30:34;26.6;;;6.3;;
68224;SDS011;57497;43.322;21.932;2022-12-10T05:35:33;8.3;;;4.7;;
68224;SDS011;57497;43.322;21.932;2022-12-10T05:40:33;13.2;;;7.4;;
68224;SDS011;57497;43.322;21.932;2022-12-10T05:45:33;10.8;;;6.2;;
68224;SDS011;57497;43.322;21.932;2022-12-10T05:50:33;14.1;;;7;;
68224;SDS011;57497;43.322;21.932;2022-12-10T05:55:32;13.3;;;7.9;;
68224;SDS011;57497;43.322;21.932;2022-12-10T06:00:33;8.5;;;5.1;;
68224;SDS011;57497;43.322;21.932;2022-12-10T06:05:35;22.8;;;8.7;;
68224;SDS011;57497;43.322;21.932;2022-12-10T06:10:33;17.6;;;5.5;;
68224;SDS011;57497;43.322;21.932;2022-12-10T06:15:33;24.1;;;10;;
68224;SDS011;57497;43.322;21.932;2022-12-10T06:20:33;24.2;;;17.8;;
68224;SDS011;57497;43.322;21.932;2022-12-10T06:25:32;48.9;;;25.5;;
68224;SDS011;57497;43.322;21.932;2022-12-10T06:30:33;22.4;;;14.6;;
68224;SDS011;57497;43.322;21.932;2022-12-10T06:35:33;20.8;;;10.5;;
68224;SDS011;57497;43.322;21.932;2022-12-10T06:40:33;22.8;;;11.4;;
68224;SDS011;57497;43.322;21.932;2022-12-10T06:45:32;20.8;;;13.2;;
68224;SDS011;57497;43.322;21.932;2022-12-10T06:50:33;31.7;;;14.5;;
68224;SDS011;57497;43.322;21.932;2022-12-10T06:55:33;31.1;;;12.5;;
68224;SDS011;57497;43.322;21.932;2022-12-10T07:00:33;29.7;;;14.2;;
68224;SDS011;57497;43.322;21.932;2022-12-10T07:05:33;20.8;;;13.4;;
68224;SDS011;57497;43.322;21.932;2022-12-10T07:10:32;17.5;;;11.4;;
68224;SDS011;57497;43.322;21.932;2022-12-10T07:15:32;21.1;;;7.3;;
68224;SDS011;57497;43.322;21.932;2022-12-10T07:20:33;43.5;;;19;;
68224;SDS011;57497;43.322;21.932;2022-12-10T07:25:32;21.9;;;14.8;;
68224;SDS011;57497;43.322;21.932;2022-12-10T07:30:32;163.2;;;72.2;;
68224;SDS011;57497;43.322;21.932;2022-12-10T07:35:33;89.3;;;40.1;;
68224;SDS011;57497;43.322;21.932;2022-12-10T07:40:33;153.1;;;77.4;;
68224;SDS011;57497;43.322;21.932;2022-12-10T07:45:32;108;;;54.6;;
68224;SDS011;57497;43.322;21.932;2022-12-10T07:50:33;74.9;;;46.1;;
68224;SDS011;57497;43.322;21.932;2022-12-10T07:55:33;55.6;;;36.2;;
68224;SDS011;57497;43.322;21.932;2022-12-10T08:00:34;105.5;;;52;;
68224;SDS011;57497;43.322;21.932;2022-12-10T08:05:33;62.4;;;27.7;;
68224;SDS011;57497;43.322;21.932;2022-12-10T08:10:33;67.1;;;40.8;;
68224;SDS011;57497;43.322;21.932;2022-12-10T08:15:32;43.6;;;25.9;;
68224;SDS011;57497;43.322;21.932;2022-12-10T08:20:33;91.1;;;52.1;;
68224;SDS011;57497;43.322;21.932;2022-12-10T08:25:33;76.3;;;36.8;;
68224;SDS011;57497;43.322;21.932;2022-12-10T08:30:32;55.5;;;34.6;;
68224;SDS011;57497;43.322;21.932;2022-12-10T08:35:33;43.6;;;25.9;;
68224;SDS011;57497;43.322;21.932;2022-12-10T08:40:33;38;;;20.4;;
68224;SDS011;57497;43.322;21.932;2022-12-10T08:45:33;64.8;;;35.5;;
68224;SDS011;57497;43.322;21.932;2022-12-10T08:50:32;34.5;;;22;;
68224;SDS011;57497;43.322;21.932;2022-12-10T08:55:32;27.2;;;10.8;;
68224;SDS011;57497;43.322;21.932;2022-12-10T09:00:33;23;;;11.2;;
68224;SDS011;57497;43.322;21.932;2022-12-10T09:05:33;11;;;7.2;;
68224;SDS011;57497;43.322;21.932;2022-12-10T09:10:34;11.9;;;7.5;;
68224;SDS011;57497;43.322;21.932;2022-12-10T09:15:33;11.7;;;5.1;;
68224;SDS011;57497;43.322;21.932;2022-12-10T09:20:33;7;;;4.9;;
68224;SDS011;57497;43.322;21.932;2022-12-10T09:25:32;15.8;;;4;;
68224;SDS011;57497;43.322;21.932;2022-12-10T09:30:32;5.7;;;2.4;;
68224;SDS011;57497;43.322;21.932;2022-12-10T09:35:33;10.5;;;4.9;;
68224;SDS011;57497;43.322;21.932;2022-12-10T09:40:34;23;;;5.9;;
68224;SDS011;57497;43.322;21.932;2022-12-10T09:45:35;10.2;;;3.7;;
68224;SDS011;57497;43.322;21.932;2022-12-10T09:50:34;5.6;;;3.2;;
68224;SDS011;57497;43.322;21.932;2022-12-10T09:55:34;13.9;;;6;;
68224;SDS011;57497;43.322;21.932;2022-12-10T10:00:34;7.3;;;4.1;;
68224;SDS011;57497;43.322;21.932;2022-12-10T10:05:43;12.5;;;4.5;;
68224;SDS011;57497;43.322;21.932;2022-12-10T10:10:33;13.5;;;7.7;;
68224;SDS011;57497;43.322;21.932;2022-12-10T10:15:33;10.8;;;5.8;;
68224;SDS011;57497;43.322;21.932;2022-12-10T10:20:33;19.9;;;7;;
68224;SDS011;57497;43.322;21.932;2022-12-10T10:25:33;10.1;;;5.3;;
68224;SDS011;57497;43.322;21.932;2022-12-10T10:30:33;14.1;;;6.9;;
68224;SDS011;57497;43.322;21.932;2022-12-10T10:35:33;10.6;;;3.3;;
68224;SDS011;57497;43.322;21.932;2022-12-10T10:40:39;18.2;;;6;;
68224;SDS011;57497;43.322;21.932;2022-12-10T10:45:34;5.9;;;4;;
68224;SDS011;57497;43.322;21.932;2022-12-10T10:50:36;11.9;;;4.7;;
68224;SDS011;57497;43.322;21.932;2022-12-10T10:55:33;9.9;;;4.8;;
68224;SDS011;57497;43.322;21.932;2022-12-10T11:00:33;6.9;;;3.3;;
68224;SDS011;57497;43.322;21.932;2022-12-10T11:05:33;12.6;;;3.9;;
68224;SDS011;57497;43.322;21.932;2022-12-10T11:10:33;9.6;;;6.3;;
68224;SDS011;57497;43.322;21.932;2022-12-10T11:15:34;11.2;;;5.7;;
68224;SDS011;57497;43.322;21.932;2022-12-10T11:20:34;9.9;;;6.2;;
68224;SDS011;57497;43.322;21.932;2022-12-10T11:25:38;8.6;;;3.6;;
68224;SDS011;57497;43.322;21.932;2022-12-10T11:30:33;6.9;;;4.4;;
68224;SDS011;57497;43.322;21.932;2022-12-10T11:35:37;8;;;4.4;;
68224;SDS011;57497;43.322;21.932;2022-12-10T11:40:35;7.2;;;4.6;;
68224;SDS011;57497;43.322;21.932;2022-12-10T11:45:35;15.4;;;9.2;;
68224;SDS011;57497;43.322;21.932;2022-12-10T11:50:34;7.2;;;3.7;;
68224;SDS011;57497;43.322;21.932;2022-12-10T11:55:34;6.6;;;4.4;;
68224;SDS011;57497;43.322;21.932;2022-12-10T12:00:36;14.2;;;7.1;;
68224;SDS011;57497;43.322;21.932;2022-12-10T12:05:36;7.6;;;3.4;;
68224;SDS011;57497;43.322;21.932;2022-12-10T12:10:41;12;;;3.5;;
68224;SDS011;57497;43.322;21.932;2022-12-10T12:15:33;17.9;;;3.6;;
68224;SDS011;57497;43.322;21.932;2022-12-10T12:20:34;14;;;8;;
68224;SDS011;57497;43.322;21.932;2022-12-10T12:25:34;27.8;;;11;;
68224;SDS011;57497;43.322;21.932;2022-12-10T12:30:33;18.4;;;6.6;;
68224;SDS011;57497;43.322;21.932;2022-12-10T12:35:36;36.3;;;11.3;;
68224;SDS011;57497;43.322;21.932;2022-12-10T12:40:33;12.4;;;7.7;;
68224;SDS011;57497;43.322;21.932;2022-12-10T12:45:35;23.1;;;7.7;;
68224;SDS011;57497;43.322;21.932;2022-12-10T12:50:37;16.9;;;9.5;;
68224;SDS011;57497;43.322;21.932;2022-12-10T12:55:35;24.3;;;14.3;;
68224;SDS011;57497;43.322;21.932;2022-12-10T13:00:33;24.1;;;10.3;;
68224;SDS011;57497;43.322;21.932;2022-12-10T13:05:34;21.4;;;12.9;;
68224;SDS011;57497;43.322;21.932;2022-12-10T13:10:43;24.5;;;16.2;;
68224;SDS011;57497;43.322;21.932;2022-12-10T13:15:33;33.9;;;22.9;;
68224;SDS011;57497;43.322;21.932;2022-12-10T13:20:35;42.4;;;21;;
68224;SDS011;57497;43.322;21.932;2022-12-10T13:25:38;25.2;;;11.1;;
68224;SDS011;57497;43.322;21.932;2022-12-10T13:30:34;22.7;;;9.8;;
68224;SDS011;57497;43.322;21.932;2022-12-10T13:35:33;16.4;;;10.3;;
68224;SDS011;57497;43.322;21.932;2022-12-10T13:40:37;28.6;;;17;;
68224;SDS011;57497;43.322;21.932;2022-12-10T13:45:34;62;;;28.1;;
68224;SDS011;57497;43.322;21.932;2022-12-10T13:50:35;65.8;;;39.5;;
68224;SDS011;57497;43.322;21.932;2022-12-10T13:55:33;66.2;;;41.9;;
68224;SDS011;57497;43.322;21.932;2022-12-10T14:00:35;66.7;;;39.2;;
68224;SDS011;57497;43.322;21.932;2022-12-10T14:05:36;71.6;;;35.8;;
68224;SDS011;57497;43.322;21.932;2022-12-10T14:10:33;67.6;;;37;;
68224;SDS011;57497;43.322;21.932;2022-12-10T14:15:34;80.6;;;30.3;;
68224;SDS011;57497;43.322;21.932;2022-12-10T14:20:32;59.9;;;30.9;;
68224;SDS011;57497;43.322;21.932;2022-12-10T14:25:33;70.3;;;40.4;;
68224;SDS011;57497;43.322;21.932;2022-12-10T14:30:33;80;;;36.1;;
68224;SDS011;57497;43.322;21.932;2022-12-10T14:35:33;43.3;;;29.4;;
68224;SDS011;57497;43.322;21.932;2022-12-10T14:40:35;48.4;;;26.4;;
68224;SDS011;57497;43.322;21.932;2022-12-10T14:45:36;64.8;;;28.8;;
68224;SDS011;57497;43.322;21.932;2022-12-10T14:50:33;53.3;;;32;;
68224;SDS011;57497;43.322;21.932;2022-12-10T14:55:33;46.9;;;26.5;;
68224;SDS011;57497;43.322;21.932;2022-12-10T15:00:34;40.8;;;23.4;;
68224;SDS011;57497;43.322;21.932;2022-12-10T15:05:33;58;;;35.5;;
68224;SDS011;57497;43.322;21.932;2022-12-10T15:10:33;90.8;;;39.7;;
68224;SDS011;57497;43.322;21.932;2022-12-10T15:15:33;106.7;;;51.2;;
68224;SDS011;57497;43.322;21.932;2022-12-10T15:20:36;122.1;;;51.5;;
68224;SDS011;57497;43.322;21.932;2022-12-10T15:25:40;155;;;71.9;;
68224;SDS011;57497;43.322;21.932;2022-12-10T15:30:34;170.3;;;56.1;;
68224;SDS011;57497;43.322;21.932;2022-12-10T15:35:34;99.1;;;40.4;;
68224;SDS011;57497;43.322;21.932;2022-12-10T15:40:33;95.1;;;53.4;;
68224;SDS011;57497;43.322;21.932;2022-12-10T15:45:37;148.3;;;68.4;;
68224;SDS011;57497;43.322;21.932;2022-12-10T15:50:32;71.5;;;43.3;;
68224;SDS011;57497;43.322;21.932;2022-12-10T15:55:33;57.2;;;31.8;;
68224;SDS011;57497;43.322;21.932;2022-12-10T16:00:34;86.7;;;41.8;;
68224;SDS011;57497;43.322;21.932;2022-12-10T16:05:34;94.1;;;55.3;;
68224;SDS011;57497;43.322;21.932;2022-12-10T16:10:33;144.7;;;62.4;;
68224;SDS011;57497;43.322;21.932;2022-12-10T16:15:34;125.7;;;63.8;;
68224;SDS011;57497;43.322;21.932;2022-12-10T16:20:33;146.6;;;69.5;;
68224;SDS011;57497;43.322;21.932;2022-12-10T16:25:33;178.8;;;95.5;;
68224;SDS011;57497;43.322;21.932;2022-12-10T16:30:33;165.6;;;93.1;;
68224;SDS011;57497;43.322;21.932;2022-12-10T16:35:33;171.3;;;93.5;;
68224;SDS011;57497;43.322;21.932;2022-12-10T16:40:33;239;;;141.2;;
68224;SDS011;57497;43.322;21.932;2022-12-10T16:45:33;209.4;;;106.6;;
68224;SDS011;57497;43.322;21.932;2022-12-10T16:50:33;166.8;;;94;;
68224;SDS011;57497;43.322;21.932;2022-12-10T16:55:33;179.8;;;99.4;;
68224;SDS011;57497;43.322;21.932;2022-12-10T17:00:34;219;;;106.3;;
68224;SDS011;57497;43.322;21.932;2022-12-10T17:05:34;171.2;;;92.5;;
68224;SDS011;57497;43.322;21.932;2022-12-10T17:10:33;169.4;;;91.7;;
68224;SDS011;57497;43.322;21.932;2022-12-10T17:15:33;199.2;;;99.1;;
68224;SDS011;57497;43.322;21.932;2022-12-10T17:20:33;171.9;;;89.2;;
68224;SDS011;57497;43.322;21.932;2022-12-10T17:25:32;134.4;;;70.5;;
68224;SDS011;57497;43.322;21.932;2022-12-10T17:30:33;60.8;;;37.5;;
68224;SDS011;57497;43.322;21.932;2022-12-10T17:35:33;36.8;;;22;;
68224;SDS011;57497;43.322;21.932;2022-12-10T17:40:33;24.5;;;10.2;;
68224;SDS011;57497;43.322;21.932;2022-12-10T17:45:33;8.5;;;5.9;;
68224;SDS011;57497;43.322;21.932;2022-12-10T17:50:33;13.4;;;7.1;;
68224;SDS011;57497;43.322;21.932;2022-12-10T17:55:33;6.1;;;3.5;;
68224;SDS011;57497;43.322;21.932;2022-12-10T18:00:34;19.3;;;4.3;;
68224;SDS011;57497;43.322;21.932;2022-12-10T18:05:33;8.2;;;4.1;;
68224;SDS011;57497;43.322;21.932;2022-12-10T18:10:33;7.1;;;3.7;;
68224;SDS011;57497;43.322;21.932;2022-12-10T18:15:33;4.3;;;3.1;;
68224;SDS011;57497;43.322;21.932;2022-12-10T18:20:33;12.2;;;5.1;;
68224;SDS011;57497;43.322;21.932;2022-12-10T18:25:33;10.2;;;5.9;;
68224;SDS011;57497;43.322;21.932;2022-12-10T18:30:32;9.2;;;4.9;;
68224;SDS011;57497;43.322;21.932;2022-12-10T18:35:33;10.9;;;3.8;;
68224;SDS011;57497;43.322;21.932;2022-12-10T18:40:33;8.9;;;3.8;;
68224;SDS011;57497;43.322;21.932;2022-12-10T18:45:33;9;;;3.3;;
68224;SDS011;57497;43.322;21.932;2022-12-10T18:50:32;4.6;;;2.5;;
68224;SDS011;57497;43.322;21.932;2022-12-10T18:55:33;7.8;;;2.7;;
68224;SDS011;57497;43.322;21.932;2022-12-10T19:00:33;15.9;;;1.8;;
68224;SDS011;57497;43.322;21.932;2022-12-10T19:05:33;4.3;;;2.4;;
68224;SDS011;57497;43.322;21.932;2022-12-10T19:10:33;6.1;;;1.9;;
68224;SDS011;57497;43.322;21.932;2022-12-10T19:15:32;12;;;3.3;;
68224;SDS011;57497;43.322;21.932;2022-12-10T19:20:33;3.1;;;1.8;;
68224;SDS011;57497;43.322;21.932;2022-12-10T19:25:33;5.7;;;2.7;;
68224;SDS011;57497;43.322;21.932;2022-12-10T19:30:33;4.2;;;2.6;;
68224;SDS011;57497;43.322;21.932;2022-12-10T19:35:32;4;;;2.6;;
68224;SDS011;57497;43.322;21.932;2022-12-10T19:40:34;13;;;2.9;;
68224;SDS011;57497;43.322;21.932;2022-12-10T19:45:32;4.3;;;2.8;;
68224;SDS011;57497;43.322;21.932;2022-12-10T19:50:33;4;;;2.2;;
68224;SDS011;57497;43.322;21.932;2022-12-10T19:55:33;5.2;;;3.1;;
68224;SDS011;57497;43.322;21.932;2022-12-10T20:00:34;6.1;;;2.2;;
68224;SDS011;57497;43.322;21.932;2022-12-10T20:05:33;3.6;;;2.8;;
68224;SDS011;57497;43.322;21.932;2022-12-10T20:10:33;14.2;;;4.2;;
68224;SDS011;57497;43.322;21.932;2022-12-10T20:15:32;10.4;;;4.9;;
68224;SDS011;57497;43.322;21.932;2022-12-10T20:20:33;9;;;5.8;;
68224;SDS011;57497;43.322;21.932;2022-12-10T20:25:33;8.8;;;6.4;;
68224;SDS011;57497;43.322;21.932;2022-12-10T20:30:33;16;;;6.6;;
68224;SDS011;57497;43.322;21.932;2022-12-10T20:35:32;6.7;;;3.9;;
68224;SDS011;57497;43.322;21.932;2022-12-10T20:40:33;4.7;;;2.7;;
68224;SDS011;57497;43.322;21.932;2022-12-10T20:45:33;4;;;2.1;;
68224;SDS011;57497;43.322;21.932;2022-12-10T20:50:33;14;;;3.2;;
68224;SDS011;57497;43.322;21.932;2022-12-10T20:55:32;7.1;;;3;;
68224;SDS011;57497;43.322;21.932;2022-12-10T21:00:33;10.1;;;3.3;;
68224;SDS011;57497;43.322;21.932;2022-12-10T21:05:33;16.2;;;3.6;;
68224;SDS011;57497;43.322;21.932;2022-12-10T21:10:33;8.2;;;4.6;;
68224;SDS011;57497;43.322;21.932;2022-12-10T21:15:33;4.6;;;2.8;;
68224;SDS011;57497;43.322;21.932;2022-12-10T21:20:32;4.2;;;2.1;;
68224;SDS011;57497;43.322;21.932;2022-12-10T21:25:33;7.3;;;2.8;;
68224;SDS011;57497;43.322;21.932;2022-12-10T21:30:33;7.3;;;2.7;;
68224;SDS011;57497;43.322;21.932;2022-12-10T21:35:32;8.1;;;2;;
68224;SDS011;57497;43.322;21.932;2022-12-10T21:40:33;5.5;;;2;;
68224;SDS011;57497;43.322;21.932;2022-12-10T21:45:32;10.8;;;3.1;;
68224;SDS011;57497;43.322;21.932;2022-12-10T21:50:33;6.5;;;4.7;;
68224;SDS011;57497;43.322;21.932;2022-12-10T21:55:33;18.2;;;4.6;;
68224;SDS011;57497;43.322;21.932;2022-12-10T22:00:34;18.8;;;5.8;;
68224;SDS011;57497;43.322;21.932;2022-12-10T22:05:33;13.2;;;5.8;;
68224;SDS011;57497;43.322;21.932;2022-12-10T22:10:33;14.1;;;5.2;;
68224;SDS011;57497;43.322;21.932;2022-12-10T22:15:33;11.5;;;3.2;;
68224;SDS011;57497;43.322;21.932;2022-12-10T22:20:33;10.7;;;4.6;;
68224;SDS011;57497;43.322;21.932;2022-12-10T22:25:33;9.7;;;3.5;;
68224;SDS011;57497;43.322;21.932;2022-12-10T22:30:33;7.6;;;3.7;;
68224;SDS011;57497;43.322;21.932;2022-12-10T22:35:33;7.7;;;4.4;;
68224;SDS011;57497;43.322;21.932;2022-12-10T22:40:32;6.7;;;4;;
68224;SDS011;57497;43.322;21.932;2022-12-10T22:45:33;3;;;2.1;;
68224;SDS011;57497;43.322;21.932;2022-12-10T22:50:32;3.6;;;1.7;;
68224;SDS011;57497;43.322;21.932;2022-12-10T22:55:33;5.5;;;2.9;;
68224;SDS011;57497;43.322;21.932;2022-12-10T23:00:34;14.9;;;3.7;;
68224;SDS011;57497;43.322;21.932;2022-12-10T23:05:34;8.2;;;2.8;;
68224;SDS011;57497;43.322;21.932;2022-12-10T23:10:33;7.6;;;3.4;;
68224;SDS011;57497;43.322;21.932;2022-12-10T23:15:33;3.5;;;1.9;;
68224;SDS011;57497;43.322;21.932;2022-12-10T23:20:33;7.8;;;2.1;;
68224;SDS011;57497;43.322;21.932;2022-12-10T23:25:33;4.9;;;2.5;;
68224;SDS011;57497;43.322;21.932;2022-12-10T23:30:32;25.5;;;14.6;;
68224;SDS011;57497;43.322;21.932;2022-12-10T23:35:33;6.4;;;4.3;;
68224;SDS011;57497;43.322;21.932;2022-12-10T23:40:33;19.7;;;10.1;;
68224;SDS011;57497;43.322;21.932;2022-12-10T23:45:33;16.6;;;9.8;;
68224;SDS011;57497;43.322;21.932;2022-12-10T23:50:33;15.1;;;8.1;;
68224;SDS011;57497;43.322;21.932;2022-12-10T23:55:33;23.9;;;15.6;;
